createdAt,value
2018-12-21T00:00:28.048Z,2.40
2018-12-21T00:01:06.805Z,2.70
2018-12-21T00:01:45.401Z,2.37
2018-12-21T00:02:23.948Z,2.10
2018-12-21T00:03:02.329Z,2.90
2018-12-21T00:03:40.656Z,2.55
2018-12-21T00:04:19.939Z,2.98
2018-12-21T00:04:58.506Z,2.65
2018-12-21T00:05:37.088Z,2.70
2018-12-21T00:06:17.896Z,2.45
2018-12-21T00:06:56.212Z,3.00
2018-12-21T00:07:34.197Z,2.83
2018-12-21T00:08:12.386Z,2.40
2018-12-21T00:08:50.311Z,2.20
2018-12-21T00:09:28.272Z,2.85
2018-12-21T00:10:06.436Z,2.87
2018-12-21T00:10:46.101Z,3.57
2018-12-21T00:11:24.552Z,3.20
2018-12-21T00:12:04.078Z,3.60
2018-12-21T00:12:42.021Z,3.10
2018-12-21T00:13:19.947Z,3.15
2018-12-21T00:13:59.467Z,3.08
2018-12-21T00:14:38.512Z,6.05
2018-12-21T00:15:16.696Z,5.78
2018-12-21T00:15:55.067Z,4.58
2018-12-21T00:16:32.898Z,4.25
2018-12-21T00:17:10.948Z,3.15
2018-12-21T00:17:48.940Z,3.62
2018-12-21T00:18:26.887Z,4.20
2018-12-21T00:19:04.736Z,4.00
2018-12-21T00:19:42.784Z,3.92
2018-12-21T00:20:20.791Z,3.50
2018-12-21T00:20:58.863Z,3.80
2018-12-21T00:21:38.569Z,4.22
2018-12-21T00:22:16.991Z,4.28
2018-12-21T00:22:56.016Z,3.70
2018-12-21T00:23:34.355Z,3.90
2018-12-21T00:24:12.755Z,4.00
2018-12-21T00:24:52.220Z,4.17
2018-12-21T00:25:30.875Z,4.10
2018-12-21T00:26:09.501Z,3.40
2018-12-21T00:26:48.074Z,3.70
2018-12-21T00:27:26.774Z,3.70
2018-12-21T00:28:05.015Z,3.67
2018-12-21T00:28:44.085Z,3.80
2018-12-21T00:29:22.384Z,4.12
2018-12-21T00:30:01.035Z,4.20
2018-12-21T00:30:37.640Z,4.20
2018-12-21T00:31:20.802Z,3.90
2018-12-21T00:32:03.067Z,3.55
2018-12-21T00:32:45.704Z,4.00
2018-12-21T00:33:28.139Z,3.62
2018-12-21T00:34:10.600Z,3.80
2018-12-21T00:34:53.160Z,3.55
2018-12-21T00:35:35.896Z,3.90
2018-12-21T00:36:18.715Z,4.15
2018-12-21T00:37:01.259Z,3.47
2018-12-21T00:37:43.637Z,2.95
2018-12-21T00:38:26.128Z,4.00
2018-12-21T00:39:09.203Z,3.60
2018-12-21T00:39:52.198Z,3.58
2018-12-21T00:40:35.203Z,4.20
2018-12-21T00:41:14.971Z,4.53
2018-12-21T00:41:52.735Z,3.25
2018-12-21T00:42:42.919Z,3.95
2018-12-21T00:43:31.962Z,3.98
2018-12-21T00:44:17.094Z,3.95
2018-12-21T00:44:59.411Z,3.85
2018-12-21T00:45:41.345Z,4.92
2018-12-21T00:46:34.233Z,4.67
2018-12-21T00:47:16.912Z,7.42
2018-12-21T00:47:55.351Z,7.10
2018-12-21T00:48:34.086Z,7.58
2018-12-21T00:49:13.729Z,7.25
2018-12-21T00:49:51.996Z,8.00
2018-12-21T00:50:30.684Z,8.50
2018-12-21T00:51:09.212Z,8.25
2018-12-21T00:51:47.863Z,8.58
2018-12-21T00:52:27.243Z,8.48
2018-12-21T00:53:05.812Z,8.18
2018-12-21T00:53:44.435Z,8.73
2018-12-21T00:54:22.883Z,8.60
2018-12-21T00:55:01.559Z,7.42
2018-12-21T00:55:40.412Z,7.00
2018-12-21T00:56:18.599Z,6.80
2018-12-21T00:56:57.712Z,7.20
2018-12-21T00:57:36.774Z,7.35
2018-12-21T00:58:14.758Z,7.45
2018-12-21T00:58:53.900Z,6.17
2018-12-21T00:59:32.271Z,6.15
2018-12-21T01:00:12.796Z,6.83
2018-12-21T01:00:51.365Z,6.35
2018-12-21T01:01:31.028Z,6.55
2018-12-21T01:02:09.663Z,6.40
2018-12-21T01:02:48.108Z,6.85
2018-12-21T01:03:26.837Z,6.65
2018-12-21T01:04:05.302Z,7.05
2018-12-21T01:04:43.880Z,6.70
2018-12-21T01:05:22.692Z,6.53
2018-12-21T01:06:01.195Z,6.37
2018-12-21T01:06:40.476Z,5.80
2018-12-21T01:07:19.016Z,5.95
2018-12-21T01:07:57.656Z,5.80
2018-12-21T01:08:36.199Z,6.27
2018-12-21T01:09:14.410Z,5.72
2018-12-21T01:09:56.465Z,6.15
2018-12-21T01:10:35.059Z,6.45
2018-12-21T01:11:13.265Z,6.20
2018-12-21T01:11:51.644Z,6.12
2018-12-21T01:12:30.108Z,6.17
2018-12-21T01:13:08.882Z,5.80
2018-12-21T01:13:47.658Z,6.10
2018-12-21T01:14:27.191Z,6.72
2018-12-21T01:15:05.803Z,6.53
2018-12-21T01:15:44.523Z,6.40
2018-12-21T01:16:23.671Z,5.65
2018-12-21T01:17:02.029Z,5.92
2018-12-21T01:17:40.628Z,6.28
2018-12-21T01:19:01.959Z,5.75
2018-12-21T01:19:40.363Z,5.30
2018-12-21T01:20:18.828Z,4.87
2018-12-21T01:20:57.244Z,5.45
2018-12-21T01:21:38.918Z,5.50
2018-12-21T01:22:16.638Z,5.67
2018-12-21T01:22:57.086Z,5.20
2018-12-21T01:23:35.687Z,5.62
2018-12-21T01:24:16.016Z,5.85
2018-12-21T01:24:54.544Z,5.50
2018-12-21T01:25:32.853Z,5.95
2018-12-21T01:26:11.785Z,5.83
2018-12-21T01:26:50.260Z,5.70
2018-12-21T01:27:28.861Z,6.37
2018-12-21T01:28:08.684Z,6.25
2018-12-21T01:28:47.736Z,6.90
2018-12-21T01:29:26.368Z,6.05
2018-12-21T01:30:05.728Z,6.20
2018-12-21T01:30:44.351Z,6.30
2018-12-21T01:31:22.528Z,7.00
2018-12-21T01:32:00.931Z,6.28
2018-12-21T01:32:39.657Z,6.43
2018-12-21T01:33:18.179Z,6.17
2018-12-21T01:34:01.248Z,6.75
2018-12-21T01:34:39.760Z,6.67
2018-12-21T01:35:18.967Z,7.12
2018-12-21T01:35:59.159Z,6.42
2018-12-21T01:36:37.809Z,6.30
2018-12-21T01:37:16.444Z,7.05
2018-12-21T01:37:54.971Z,6.92
2018-12-21T01:38:33.701Z,7.03
2018-12-21T01:39:11.823Z,6.00
2018-12-21T01:39:50.438Z,6.00
2018-12-21T01:40:29.132Z,6.30
2018-12-21T01:41:08.435Z,6.42
2018-12-21T01:41:47.180Z,6.28
2018-12-21T01:42:25.424Z,6.40
2018-12-21T01:43:04.178Z,7.10
2018-12-21T01:43:42.605Z,6.85
2018-12-21T01:44:21.828Z,7.50
2018-12-21T01:45:00.444Z,6.58
2018-12-21T01:45:39.164Z,7.03
2018-12-21T01:46:17.535Z,7.65
2018-12-21T01:46:56.933Z,7.83
2018-12-21T01:47:36.208Z,8.00
2018-12-21T01:48:14.845Z,7.15
2018-12-21T01:48:53.860Z,7.80
2018-12-21T01:49:33.295Z,8.45
2018-12-21T01:50:11.521Z,7.37
2018-12-21T01:50:50.592Z,7.25
2018-12-21T01:51:29.376Z,6.70
2018-12-21T01:52:08.239Z,8.08
2018-12-21T01:52:46.974Z,6.53
2018-12-21T01:53:25.543Z,7.12
2018-12-21T01:54:04.828Z,7.00
2018-12-21T01:54:44.646Z,6.72
2018-12-21T01:55:22.967Z,6.35
2018-12-21T01:56:01.153Z,8.45
2018-12-21T01:56:39.532Z,6.40
2018-12-21T01:57:18.152Z,6.72
2018-12-21T01:57:56.204Z,6.45
2018-12-21T01:58:35.467Z,6.80
2018-12-21T01:59:14.010Z,6.65
2018-12-21T01:59:53.043Z,7.30
2018-12-21T02:00:31.932Z,6.12
2018-12-21T02:01:10.502Z,6.60
2018-12-21T02:01:49.247Z,6.37
2018-12-21T02:02:28.026Z,5.90
2018-12-21T02:03:06.699Z,6.30
2018-12-21T02:03:45.967Z,6.95
2018-12-21T02:04:24.464Z,6.78
2018-12-21T02:05:02.956Z,6.03
2018-12-21T02:05:41.683Z,6.72
2018-12-21T02:06:21.392Z,5.58
2018-12-21T02:06:59.945Z,6.45
2018-12-21T02:07:38.596Z,6.28
2018-12-21T02:08:18.013Z,6.45
2018-12-21T02:08:56.625Z,5.92
2018-12-21T02:09:35.456Z,5.87
2018-12-21T02:10:14.609Z,6.15
2018-12-21T02:10:53.105Z,6.70
2018-12-21T02:11:31.701Z,5.92
2018-12-21T02:12:10.278Z,6.37
2018-12-21T02:12:48.832Z,6.00
2018-12-21T02:13:27.801Z,6.15
2018-12-21T02:14:06.184Z,6.00
2018-12-21T02:14:44.844Z,6.28
2018-12-21T02:15:24.313Z,6.00
2018-12-21T02:16:03.032Z,6.08
2018-12-21T02:16:41.400Z,5.80
2018-12-21T02:17:19.649Z,6.00
2018-12-21T02:17:58.790Z,5.35
2018-12-21T02:18:37.491Z,5.62
2018-12-21T02:19:15.896Z,6.53
2018-12-21T02:19:54.096Z,6.15
2018-12-21T02:20:32.971Z,5.37
2018-12-21T02:21:11.390Z,6.05
2018-12-21T02:21:55.890Z,5.97
2018-12-21T02:22:30.555Z,5.62
2018-12-21T02:23:09.347Z,6.37
2018-12-21T02:23:47.570Z,5.55
2018-12-21T02:24:26.271Z,6.25
2018-12-21T02:25:05.776Z,5.60
2018-12-21T02:25:44.424Z,5.85
2018-12-21T02:26:22.944Z,5.45
2018-12-21T02:27:01.425Z,5.25
2018-12-21T02:27:40.395Z,6.17
2018-12-21T02:28:19.237Z,5.70
2018-12-21T02:28:57.914Z,5.37
2018-12-21T02:29:37.036Z,5.20
2018-12-21T02:30:16.162Z,5.80
2018-12-21T02:30:55.536Z,5.72
2018-12-21T02:31:34.149Z,5.00
2018-12-21T02:32:12.746Z,5.47
2018-12-21T02:32:51.780Z,5.80
2018-12-21T02:33:30.476Z,6.33
2018-12-21T02:34:09.128Z,5.30
2018-12-21T02:34:47.997Z,5.95
2018-12-21T02:35:26.418Z,6.00
2018-12-21T02:36:10.723Z,5.95
2018-12-21T02:36:49.003Z,5.40
2018-12-21T02:37:27.680Z,5.87
2018-12-21T02:38:06.521Z,5.35
2018-12-21T02:38:45.340Z,5.60
2018-12-21T02:39:24.102Z,5.33
2018-12-21T02:40:02.680Z,5.40
2018-12-21T02:40:42.274Z,5.17
2018-12-21T02:41:20.967Z,6.28
2018-12-21T02:41:59.471Z,5.67
2018-12-21T02:42:37.773Z,5.63
2018-12-21T02:43:16.094Z,5.45
2018-12-21T02:43:54.802Z,5.47
2018-12-21T02:44:33.416Z,5.80
2018-12-21T02:45:12.477Z,5.60
2018-12-21T02:45:50.892Z,5.53
2018-12-21T02:46:29.026Z,5.30
2018-12-21T02:47:07.468Z,5.20
2018-12-21T02:47:46.635Z,5.12
2018-12-21T02:48:25.128Z,5.70
2018-12-21T02:49:03.403Z,4.92
2018-12-21T02:49:42.484Z,4.97
2018-12-21T02:50:21.683Z,5.20
2018-12-21T02:51:00.272Z,5.78
2018-12-21T02:51:39.036Z,5.47
2018-12-21T02:52:17.705Z,5.08
2018-12-21T02:52:56.024Z,5.30
2018-12-21T02:53:34.487Z,5.30
2018-12-21T02:54:12.956Z,4.85
2018-12-21T02:54:51.444Z,4.53
2018-12-21T02:55:29.859Z,4.85
2018-12-21T02:56:08.481Z,4.60
2018-12-21T02:56:47.320Z,5.30
2018-12-21T02:57:25.916Z,4.22
2018-12-21T02:58:04.397Z,4.80
2018-12-21T02:58:43.816Z,5.70
2018-12-21T02:59:23.013Z,4.40
2018-12-21T03:00:01.468Z,4.17
2018-12-21T03:00:39.635Z,5.03
2018-12-21T03:01:18.334Z,4.78
2018-12-21T03:01:56.836Z,4.37
2018-12-21T03:02:35.588Z,4.40
2018-12-21T03:03:14.243Z,4.83
2018-12-21T03:03:52.923Z,4.15
2018-12-21T03:04:31.366Z,4.47
2018-12-21T03:05:09.974Z,4.47
2018-12-21T03:05:48.812Z,4.80
2018-12-21T03:06:27.600Z,4.65
2018-12-21T03:07:08.496Z,4.45
2018-12-21T03:07:46.927Z,4.80
2018-12-21T03:08:25.584Z,4.57
2018-12-21T03:09:04.048Z,4.47
2018-12-21T03:09:44.051Z,3.90
2018-12-21T03:10:23.517Z,4.72
2018-12-21T03:11:01.999Z,4.17
2018-12-21T03:11:40.445Z,4.62
2018-12-21T03:12:19.000Z,3.85
2018-12-21T03:12:57.554Z,4.42
2018-12-21T03:13:36.128Z,3.50
2018-12-21T03:14:14.990Z,4.40
2018-12-21T03:14:53.482Z,4.40
2018-12-21T03:15:32.378Z,4.65
2018-12-21T03:16:11.082Z,3.75
2018-12-21T03:16:49.382Z,4.00
2018-12-21T03:17:28.212Z,3.80
2018-12-21T03:18:06.514Z,3.92
2018-12-21T03:18:45.107Z,3.62
2018-12-21T03:19:23.935Z,4.25
2018-12-21T03:20:02.261Z,3.98
2018-12-21T03:20:41.352Z,4.10
2018-12-21T03:21:20.006Z,4.30
2018-12-21T03:21:58.840Z,4.65
2018-12-21T03:22:37.308Z,4.23
2018-12-21T03:23:15.332Z,3.85
2018-12-21T03:23:53.962Z,3.67
2018-12-21T03:24:32.115Z,4.10
2018-12-21T03:25:10.505Z,3.50
2018-12-21T03:25:48.774Z,3.67
2018-12-21T03:26:27.487Z,4.12
2018-12-21T03:27:06.058Z,4.12
2018-12-21T03:27:44.871Z,4.28
2018-12-21T03:28:23.305Z,4.65
2018-12-21T03:29:02.504Z,4.00
2018-12-21T03:29:41.181Z,4.05
2018-12-21T03:30:19.561Z,4.35
2018-12-21T03:30:58.094Z,3.80
2018-12-21T03:31:36.832Z,4.05
2018-12-21T03:32:14.878Z,4.22
2018-12-21T03:32:53.570Z,4.00
2018-12-21T03:33:32.832Z,4.53
2018-12-21T03:34:11.459Z,4.28
2018-12-21T03:34:49.751Z,4.22
2018-12-21T03:35:28.137Z,4.17
2018-12-21T03:36:06.458Z,3.83
2018-12-21T03:36:45.052Z,3.80
2018-12-21T03:37:23.640Z,4.33
2018-12-21T03:38:02.049Z,4.08
2018-12-21T03:38:41.405Z,4.00
2018-12-21T03:39:21.203Z,4.12
2018-12-21T03:39:59.734Z,4.35
2018-12-21T03:40:38.860Z,4.23
2018-12-21T03:41:17.248Z,4.47
2018-12-21T03:41:55.860Z,4.05
2018-12-21T03:42:34.521Z,4.20
2018-12-21T03:43:13.090Z,4.10
2018-12-21T03:43:51.655Z,3.85
2018-12-21T03:44:30.358Z,3.95
2018-12-21T03:45:09.063Z,3.95
2018-12-21T03:45:47.492Z,4.30
2018-12-21T03:46:26.383Z,4.10
2018-12-21T03:47:04.612Z,4.05
2018-12-21T03:47:43.135Z,4.40
2018-12-21T03:48:21.922Z,4.15
2018-12-21T03:49:00.663Z,4.03
2018-12-21T03:49:39.863Z,4.20
2018-12-21T03:50:18.589Z,4.62
2018-12-21T03:50:57.121Z,3.63
2018-12-21T03:51:35.921Z,4.10
2018-12-21T03:52:23.989Z,3.65
2018-12-21T03:52:55.540Z,3.90
2018-12-21T03:53:34.281Z,4.08
2018-12-21T03:54:12.727Z,3.92
2018-12-21T03:54:51.145Z,3.95
2018-12-21T03:55:29.696Z,4.30
2018-12-21T03:56:09.290Z,3.98
2018-12-21T03:56:48.325Z,4.28
2018-12-21T03:57:26.555Z,3.92
2018-12-21T03:58:05.330Z,3.72
2018-12-21T03:58:43.551Z,4.70
2018-12-21T03:59:22.066Z,4.30
2018-12-21T04:00:00.980Z,3.50
2018-12-21T04:00:38.977Z,4.40
2018-12-21T04:01:17.154Z,4.17
2018-12-21T04:01:55.896Z,4.20
2018-12-21T04:02:34.485Z,3.93
2018-12-21T04:03:13.005Z,3.77
2018-12-21T04:03:51.337Z,4.25
2018-12-21T04:04:30.152Z,4.30
2018-12-21T04:05:08.684Z,4.10
2018-12-21T04:05:46.930Z,4.10
2018-12-21T04:06:26.431Z,3.60
2018-12-21T04:07:05.070Z,4.25
2018-12-21T04:07:43.330Z,4.30
2018-12-21T04:08:21.743Z,4.33
2018-12-21T04:09:00.504Z,4.43
2018-12-21T04:09:39.026Z,3.60
2018-12-21T04:10:18.912Z,4.05
2018-12-21T04:10:56.889Z,3.90
2018-12-21T04:11:34.964Z,4.35
2018-12-21T04:12:13.786Z,3.65
2018-12-21T04:12:53.308Z,4.12
2018-12-21T04:13:32.136Z,3.55
2018-12-21T04:14:10.793Z,4.27
2018-12-21T04:14:49.269Z,4.60
2018-12-21T04:15:27.760Z,3.87
2018-12-21T04:16:06.032Z,3.50
2018-12-21T04:16:44.671Z,4.23
2018-12-21T04:17:23.799Z,4.30
2018-12-21T04:18:02.153Z,3.90
2018-12-21T04:18:40.828Z,4.27
2018-12-21T04:19:19.044Z,4.08
2018-12-21T04:19:57.968Z,4.95
2018-12-21T04:20:36.561Z,4.17
2018-12-21T04:21:15.272Z,3.83
2018-12-21T04:21:53.902Z,3.87
2018-12-21T04:22:34.306Z,4.35
2018-12-21T04:23:12.777Z,4.30
2018-12-21T04:23:51.263Z,4.25
2018-12-21T04:24:29.795Z,4.17
2018-12-21T04:25:09.011Z,4.40
2018-12-21T04:25:47.792Z,4.30
2018-12-21T04:26:26.975Z,4.17
2018-12-21T04:27:05.677Z,4.20
2018-12-21T04:27:44.332Z,4.45
2018-12-21T04:28:22.694Z,4.20
2018-12-21T04:29:01.161Z,4.30
2018-12-21T04:29:39.961Z,4.20
2018-12-21T04:30:18.333Z,4.20
2018-12-21T04:30:56.591Z,4.55
2018-12-21T04:31:35.069Z,4.05
2018-12-21T04:35:18.344Z,4.50
2018-12-21T04:35:56.631Z,4.33
2018-12-21T04:36:34.804Z,4.53
2018-12-21T04:37:13.164Z,4.42
2018-12-21T04:37:51.448Z,4.05
2018-12-21T04:38:31.504Z,4.10
2018-12-21T04:39:10.921Z,4.20
2018-12-21T04:39:49.503Z,3.98
2018-12-21T04:40:28.152Z,5.33
2018-12-21T04:41:07.601Z,3.92
2018-12-21T04:41:46.893Z,4.47
2018-12-21T04:42:25.368Z,4.23
2018-12-21T04:43:03.789Z,4.75
2018-12-21T04:43:45.375Z,4.45
2018-12-21T04:44:23.861Z,4.40
2018-12-21T04:45:02.516Z,3.80
2018-12-21T04:46:23.959Z,4.05
2018-12-21T04:47:02.256Z,4.45
2018-12-21T04:47:40.712Z,4.35
2018-12-21T04:48:19.293Z,4.50
2018-12-21T04:48:57.795Z,3.80
2018-12-21T04:49:36.292Z,4.35
2018-12-21T04:50:15.396Z,4.00
2018-12-21T04:50:53.713Z,4.00
2018-12-21T04:51:32.495Z,4.00
2018-12-21T04:52:11.126Z,3.63
2018-12-21T04:52:49.662Z,4.10
2018-12-21T04:53:28.434Z,4.70
2018-12-21T04:54:07.149Z,3.72
2018-12-21T04:54:45.884Z,4.50
2018-12-21T04:55:26.335Z,4.23
2018-12-21T04:56:04.483Z,4.63
2018-12-21T04:56:43.156Z,4.23
2018-12-21T04:57:21.995Z,4.10
2018-12-21T04:58:00.649Z,4.80
2018-12-21T04:58:39.237Z,4.70
2018-12-21T04:59:17.649Z,4.10
2018-12-21T04:59:56.072Z,4.53
2018-12-21T05:00:34.662Z,4.10
2018-12-21T05:01:14.269Z,4.20
2018-12-21T05:01:52.599Z,4.20
2018-12-21T05:02:31.015Z,4.30
2018-12-21T05:03:10.557Z,4.23
2018-12-21T05:03:48.630Z,4.00
2018-12-21T05:04:27.268Z,4.87
2018-12-21T05:05:05.577Z,4.40
2018-12-21T05:05:44.103Z,4.80
2018-12-21T05:06:22.600Z,4.40
2018-12-21T05:07:01.203Z,4.05
2018-12-21T05:07:39.729Z,4.00
2018-12-21T05:08:18.607Z,4.33
2018-12-21T05:08:57.147Z,4.63
2018-12-21T05:09:35.119Z,4.35
2018-12-21T05:10:39.569Z,3.70
2018-12-21T05:11:18.031Z,4.10
2018-12-21T05:11:56.517Z,4.50
2018-12-21T05:12:34.839Z,4.07
2018-12-21T05:13:14.256Z,4.40
2018-12-21T05:13:52.794Z,4.07
2018-12-21T05:14:31.233Z,4.40
2018-12-21T05:15:10.185Z,4.20
2018-12-21T05:15:48.360Z,4.70
2018-12-21T05:16:26.925Z,4.10
2018-12-21T05:17:05.131Z,4.10
2018-12-21T05:17:43.792Z,3.87
2018-12-21T05:18:22.299Z,4.50
2018-12-21T05:19:00.812Z,4.43
2018-12-21T05:19:39.238Z,4.50
2018-12-21T05:20:18.069Z,4.37
2018-12-21T05:20:56.472Z,4.20
2018-12-21T05:21:35.129Z,4.57
2018-12-21T05:22:13.696Z,4.03
2018-12-21T05:22:52.698Z,4.10
2018-12-21T05:23:31.267Z,4.80
2018-12-21T05:24:09.433Z,4.37
2018-12-21T05:24:47.656Z,4.60
2018-12-21T05:25:26.159Z,4.57
2018-12-21T05:26:04.514Z,4.03
2018-12-21T05:26:43.921Z,4.37
2018-12-21T05:27:22.015Z,4.50
2018-12-21T05:28:00.565Z,4.70
2018-12-21T05:28:38.894Z,3.70
2018-12-21T05:29:18.969Z,4.40
2018-12-21T05:29:57.133Z,5.25
2018-12-21T05:30:36.299Z,4.40
2018-12-21T05:31:15.300Z,4.60
2018-12-21T05:31:54.129Z,4.43
2018-12-21T05:32:33.187Z,5.37
2018-12-21T05:33:12.410Z,5.17
2018-12-21T05:33:50.875Z,5.17
2018-12-21T05:34:29.648Z,4.70
2018-12-21T05:35:08.273Z,5.10
2018-12-21T05:35:47.385Z,4.10
2018-12-21T05:36:25.817Z,4.70
2018-12-21T05:37:04.668Z,5.20
2018-12-21T05:37:43.197Z,4.47
2018-12-21T05:38:21.727Z,4.63
2018-12-21T05:39:00.211Z,4.40
2018-12-21T05:39:38.243Z,4.23
2018-12-21T05:40:16.984Z,4.00
2018-12-21T05:40:55.391Z,4.53
2018-12-21T05:41:34.088Z,5.47
2018-12-21T05:42:12.532Z,4.50
2018-12-21T05:42:51.156Z,4.43
2018-12-21T05:43:29.624Z,4.40
2018-12-21T05:44:08.299Z,5.20
2018-12-21T05:44:46.720Z,4.30
2018-12-21T05:45:24.895Z,4.97
2018-12-21T05:46:03.286Z,4.50
2018-12-21T05:46:41.944Z,4.60
2018-12-21T05:47:20.568Z,4.30
2018-12-21T05:47:59.064Z,4.40
2018-12-21T05:48:37.508Z,4.60
2018-12-21T05:49:16.004Z,4.10
2018-12-21T05:49:55.235Z,4.67
2018-12-21T05:50:33.813Z,4.70
2018-12-21T05:51:12.295Z,4.97
2018-12-21T05:51:50.804Z,4.83
2018-12-21T05:52:29.239Z,4.97
2018-12-21T05:53:07.195Z,4.30
2018-12-21T05:53:45.812Z,5.40
2018-12-21T05:54:24.405Z,5.00
2018-12-21T05:55:03.164Z,4.97
2018-12-21T05:55:41.787Z,4.60
2018-12-21T05:56:20.371Z,5.35
2018-12-21T05:56:58.624Z,4.77
2018-12-21T05:57:37.004Z,5.13
2018-12-21T05:58:15.298Z,4.33
2018-12-21T05:58:53.712Z,5.00
2018-12-21T05:59:32.807Z,4.20
2018-12-21T06:00:13.328Z,4.33
2018-12-21T06:00:51.584Z,5.40
2018-12-21T06:01:30.443Z,4.93
2018-12-21T06:02:09.731Z,4.80
2018-12-21T06:02:48.143Z,4.87
2018-12-21T06:03:26.386Z,4.00
2018-12-21T06:04:05.108Z,4.65
2018-12-21T06:04:43.480Z,5.07
2018-12-21T06:05:22.276Z,4.90
2018-12-21T06:06:00.642Z,4.60
2018-12-21T06:06:39.064Z,4.60
2018-12-21T06:07:17.531Z,4.57
2018-12-21T06:07:56.463Z,5.00
2018-12-21T06:08:35.291Z,5.57
2018-12-21T06:09:14.933Z,4.87
2018-12-21T06:09:53.326Z,5.47
2018-12-21T06:10:31.640Z,4.47
2018-12-21T06:11:10.064Z,5.20
2018-12-21T06:11:48.804Z,4.80
2018-12-21T06:12:28.090Z,4.73
2018-12-21T06:13:06.603Z,5.20
2018-12-21T06:13:45.587Z,5.33
2018-12-21T06:14:25.864Z,5.10
2018-12-21T06:15:05.483Z,4.80
2018-12-21T06:15:44.134Z,4.63
2018-12-21T06:16:23.316Z,4.90
2018-12-21T06:17:02.620Z,5.70
2018-12-21T06:17:40.656Z,4.80
2018-12-21T06:18:20.095Z,4.40
2018-12-21T06:18:58.586Z,4.93
2018-12-21T06:19:37.210Z,5.40
2018-12-21T06:20:15.968Z,4.43
2018-12-21T06:20:54.024Z,4.70
2018-12-21T06:21:32.582Z,4.70
2018-12-21T06:22:10.573Z,4.97
2018-12-21T06:22:49.534Z,4.40
2018-12-21T06:23:28.105Z,4.60
2018-12-21T06:24:06.871Z,4.20
2018-12-21T06:24:45.431Z,4.60
2018-12-21T06:25:25.075Z,4.80
2018-12-21T06:26:04.232Z,4.60
2018-12-21T06:26:44.101Z,5.00
2018-12-21T06:27:22.640Z,4.27
2018-12-21T06:28:00.940Z,4.93
2018-12-21T06:28:39.004Z,4.53
2018-12-21T06:29:17.169Z,4.07
2018-12-21T06:29:55.437Z,4.87
2018-12-21T06:30:33.821Z,4.03
2018-12-21T06:31:13.411Z,4.30
2018-12-21T06:31:52.018Z,4.13
2018-12-21T06:32:30.643Z,4.30
2018-12-21T06:33:09.321Z,4.33
2018-12-21T06:33:47.534Z,3.93
2018-12-21T06:34:26.068Z,4.13
2018-12-21T06:35:04.679Z,3.37
2018-12-21T06:35:43.406Z,4.00
2018-12-21T06:36:22.659Z,3.43
2018-12-21T06:37:01.483Z,3.60
2018-12-21T06:37:39.925Z,3.50
2018-12-21T06:38:20.619Z,3.60
2018-12-21T06:38:59.124Z,3.87
2018-12-21T06:39:37.601Z,3.67
2018-12-21T06:40:16.120Z,3.40
2018-12-21T06:40:54.917Z,4.03
2018-12-21T06:41:33.289Z,4.15
2018-12-21T06:42:11.588Z,3.80
2018-12-21T06:42:50.757Z,4.20
2018-12-21T06:43:30.327Z,4.07
2018-12-21T06:44:08.267Z,4.60
2018-12-21T06:44:46.554Z,4.90
2018-12-21T06:45:25.207Z,3.80
2018-12-21T06:46:04.189Z,4.30
2018-12-21T06:46:42.715Z,4.83
2018-12-21T06:47:21.488Z,4.20
2018-12-21T06:47:59.888Z,4.13
2018-12-21T06:48:38.320Z,3.97
2018-12-21T06:49:16.868Z,4.93
2018-12-21T06:49:56.207Z,4.57
2018-12-21T06:50:35.097Z,4.23
2018-12-21T06:51:13.510Z,4.00
2018-12-21T06:51:52.038Z,4.10
2018-12-21T06:52:30.685Z,3.90
2018-12-21T06:53:17.703Z,3.80
2018-12-21T06:53:50.340Z,3.77
2018-12-21T06:54:28.803Z,4.10
2018-12-21T06:55:07.244Z,4.30
2018-12-21T06:55:45.839Z,3.80
2018-12-21T06:56:24.272Z,4.57
2018-12-21T06:57:02.938Z,4.00
2018-12-21T06:57:41.338Z,4.30
2018-12-21T06:58:20.049Z,4.10
2018-12-21T06:58:58.641Z,4.07
2018-12-21T06:59:37.301Z,4.50
2018-12-21T07:00:16.320Z,3.80
2018-12-21T07:00:54.770Z,4.50
2018-12-21T07:01:32.987Z,4.20
2018-12-21T07:02:11.027Z,4.43
2018-12-21T07:02:49.737Z,4.40
2018-12-21T07:03:28.499Z,4.13
2018-12-21T07:04:07.897Z,4.10
2018-12-21T07:04:47.159Z,3.90
2018-12-21T07:05:25.695Z,4.40
2018-12-21T07:06:08.913Z,3.87
2018-12-21T07:06:58.032Z,4.57
2018-12-21T07:07:41.540Z,3.80
2018-12-21T07:08:22.118Z,4.07
2018-12-21T07:09:01.756Z,3.80
2018-12-21T07:09:44.019Z,3.60
2018-12-21T07:10:27.499Z,3.70
2018-12-21T07:11:10.907Z,4.77
2018-12-21T07:11:52.984Z,3.53
2018-12-21T07:12:35.188Z,4.10
2018-12-21T07:13:17.466Z,3.53
2018-12-21T07:14:00.497Z,4.23
2018-12-21T07:14:45.616Z,3.90
2018-12-21T07:15:27.983Z,3.73
2018-12-21T07:16:10.828Z,3.80
2018-12-21T07:16:51.089Z,3.80
2018-12-21T07:17:34.683Z,4.63
2018-12-21T07:18:16.502Z,3.60
2018-12-21T07:18:57.749Z,3.60
2018-12-21T07:19:40.544Z,3.40
2018-12-21T07:20:21.696Z,3.87
2018-12-21T07:21:04.968Z,4.30
2018-12-21T07:21:46.425Z,3.87
2018-12-21T07:22:25.611Z,3.63
2018-12-21T07:23:10.284Z,3.97
2018-12-21T07:23:52.911Z,3.67
2018-12-21T07:24:33.009Z,4.20
2018-12-21T07:25:19.425Z,4.10
2018-12-21T07:26:03.669Z,4.03
2018-12-21T07:26:51.255Z,3.97
2018-12-21T07:27:34.777Z,3.47
2018-12-21T07:28:18.396Z,3.43
2018-12-21T07:28:59.252Z,4.17
2018-12-21T07:29:44.684Z,3.97
2018-12-21T07:30:24.900Z,3.73
2018-12-21T07:31:05.316Z,3.40
2018-12-21T07:31:53.531Z,3.87
2018-12-21T07:32:38.817Z,3.77
2018-12-21T07:33:27.573Z,3.63
2018-12-21T07:34:07.991Z,3.23
2018-12-21T07:34:50.337Z,3.60
2018-12-21T07:35:35.344Z,3.53
2018-12-21T07:39:22.089Z,3.87
2018-12-21T07:40:00.094Z,3.57
2018-12-21T07:40:38.087Z,4.33
2018-12-21T07:41:16.983Z,3.17
2018-12-21T07:41:54.917Z,3.30
2018-12-21T07:42:32.847Z,3.87
2018-12-21T07:43:10.951Z,4.40
2018-12-21T07:43:49.097Z,3.83
2018-12-21T07:44:27.121Z,3.43
2018-12-21T07:45:05.011Z,3.17
2018-12-21T07:45:44.008Z,3.30
2018-12-21T07:46:22.106Z,3.80
2018-12-21T07:47:00.098Z,3.23
2018-12-21T07:47:37.996Z,3.20
2018-12-21T07:48:15.980Z,4.30
2018-12-21T07:48:54.909Z,3.70
2018-12-21T07:49:33.286Z,3.60
2018-12-21T07:50:13.229Z,3.53
2018-12-21T07:50:51.498Z,3.83
2018-12-21T07:51:30.111Z,3.27
2018-12-21T07:52:08.625Z,3.67
2018-12-21T07:52:47.421Z,3.50
2018-12-21T07:53:25.640Z,3.70
2018-12-21T07:54:03.844Z,3.40
2018-12-21T07:54:42.906Z,4.00
2018-12-21T07:55:23.249Z,3.13
2018-12-21T07:56:01.517Z,3.47
2018-12-21T07:56:39.460Z,3.63
2018-12-21T07:57:17.429Z,3.20
2018-12-21T07:57:58.523Z,4.10
2018-12-21T07:58:37.115Z,3.50
2018-12-21T07:59:15.033Z,3.67
2018-12-21T07:59:53.524Z,3.40
2018-12-21T08:00:31.507Z,3.90
2018-12-21T08:01:10.915Z,3.10
2018-12-21T08:01:49.000Z,3.90
2018-12-21T08:02:27.012Z,2.90
2018-12-21T08:03:06.056Z,3.73
2018-12-21T08:03:44.601Z,3.27
2018-12-21T08:04:22.805Z,3.30
2018-12-21T08:05:00.974Z,3.60
2018-12-21T08:05:39.323Z,3.20
2018-12-21T08:06:18.050Z,3.43
2018-12-21T08:06:56.548Z,3.53
2018-12-21T08:07:35.022Z,3.50
2018-12-21T08:08:14.806Z,3.50
2018-12-21T08:08:54.962Z,3.77
2018-12-21T08:09:32.924Z,3.90
2018-12-21T08:10:18.267Z,3.77
2018-12-21T08:10:56.256Z,3.70
2018-12-21T08:11:34.579Z,3.97
2018-12-21T08:12:12.596Z,3.03
2018-12-21T08:12:50.520Z,3.40
2018-12-21T08:13:28.485Z,3.70
2018-12-21T08:14:06.622Z,3.23
2018-12-21T08:14:47.002Z,3.73
2018-12-21T08:15:25.954Z,3.47
2018-12-21T08:16:05.177Z,3.90
2018-12-21T08:16:43.497Z,3.20
2018-12-21T08:17:22.176Z,3.20
2018-12-21T08:18:01.209Z,3.47
2018-12-21T08:18:40.233Z,3.20
2018-12-21T08:19:18.779Z,3.70
2018-12-21T08:19:58.610Z,3.60
2018-12-21T08:20:37.393Z,3.30
2018-12-21T08:21:15.333Z,3.40
2018-12-21T08:21:54.064Z,3.87
2018-12-21T08:22:32.582Z,3.50
2018-12-21T08:23:10.944Z,3.30
2018-12-21T08:23:48.953Z,3.00
2018-12-21T08:24:27.041Z,3.53
2018-12-21T08:25:05.249Z,3.70
2018-12-21T08:25:43.472Z,3.27
2018-12-21T08:26:22.889Z,4.33
2018-12-21T08:27:01.319Z,3.67
2018-12-21T08:27:39.346Z,3.47
2018-12-21T08:28:17.199Z,3.70
2018-12-21T08:28:55.522Z,3.90
2018-12-21T08:29:34.512Z,3.23
2018-12-21T08:30:13.177Z,3.57
2018-12-21T08:30:51.647Z,3.37
2018-12-21T08:31:30.388Z,3.43
2018-12-21T08:32:08.744Z,3.60
2018-12-21T08:32:46.765Z,3.20
2018-12-21T08:33:25.221Z,3.47
2018-12-21T08:34:03.095Z,3.47
2018-12-21T08:34:41.149Z,3.50
2018-12-21T08:35:20.243Z,3.60
2018-12-21T08:35:58.566Z,3.37
2018-12-21T08:36:36.800Z,3.30
2018-12-21T08:37:14.672Z,3.40
2018-12-21T08:37:52.816Z,3.40
2018-12-21T08:38:33.090Z,3.23
2018-12-21T08:39:11.143Z,3.20
2018-12-21T08:39:49.312Z,3.37
2018-12-21T08:40:28.160Z,3.03
2018-12-21T08:41:06.689Z,3.70
2018-12-21T08:41:45.288Z,3.10
2018-12-21T08:42:23.920Z,3.97
2018-12-21T08:43:02.776Z,3.30
2018-12-21T08:43:41.519Z,3.43
2018-12-21T08:44:20.084Z,4.00
2018-12-21T08:44:58.744Z,3.13
2018-12-21T08:45:37.214Z,3.63
2018-12-21T08:46:15.297Z,3.20
2018-12-21T08:46:53.928Z,3.30
2018-12-21T08:47:32.107Z,3.13
2018-12-21T08:48:11.419Z,3.57